Time;durP1;ratioP1;P1;durP2;ratioP2;P2;SDS_P1;SDS_P2;PMS_P1;PMS_P2;Temp;Humidity;BMP_temperature;BMP_pressure;BME280_temperature;BME280_humidity;BME280_pressure;Samples;Min_cycle;Max_cycle;Signal;HPM_P1;HPM_P2
2021/06/17 00:00:42;;;;;;;9.20;4.13;;;;;;;;;;5020891;28;20056;-58
2021/06/17 00:03:09;;;;;;;8.60;4.18;;;;;;;;;;5017761;28;20063;-58
2021/06/17 00:05:36;;;;;;;6.35;3.80;;;;;;;;;;5015689;28;20064;-58
2021/06/17 00:08:07;;;;;;;10.02;4.07;;;;;;;;;;5018000;28;20050;-58
2021/06/17 00:10:36;;;;;;;12.70;4.25;;;;;;;;;;5018700;28;20525;-58
2021/06/17 00:13:05;;;;;;;14.85;4.60;;;;;;;;;;5016182;28;20073;-58
2021/06/17 00:15:33;;;;;;;8.18;4.72;;;;;;;;;;5015910;28;20061;-58
2021/06/17 00:18:01;;;;;;;10.95;4.88;;;;;;;;;;5014821;28;20042;-58
2021/06/17 00:20:28;;;;;;;7.73;4.10;;;;;;;;;;5012764;28;20058;-58
2021/06/17 00:22:56;;;;;;;8.27;3.80;;;;;;;;;;5022226;28;20095;-58
2021/06/17 00:25:22;;;;;;;7.53;4.20;;;;;;;;;;5017809;28;20061;-58
2021/06/17 00:27:49;;;;;;;7.97;4.28;;;;;;;;;;5021705;28;20081;-58
2021/06/17 00:30:16;;;;;;;9.65;4.43;;;;;;;;;;5020254;28;20060;-58
2021/06/17 00:32:43;;;;;;;11.25;4.72;;;;;;;;;;5020443;28;20107;-58
2021/06/17 00:35:11;;;;;;;16.95;4.50;;;;;;;;;;5024199;28;20494;-58
2021/06/17 00:37:40;;;;;;;12.07;4.47;;;;;;;;;;5021979;28;20125;-58
2021/06/17 00:40:08;;;;;;;7.88;4.60;;;;;;;;;;5021022;28;20152;-58
2021/06/17 00:42:36;;;;;;;12.63;4.22;;;;;;;;;;5015884;28;20049;-58
2021/06/17 00:45:06;;;;;;;8.25;4.35;;;;;;;;;;5017371;28;20038;-58
2021/06/17 00:47:34;;;;;;;13.15;4.82;;;;;;;;;;5018713;28;20542;-58
2021/06/17 00:50:01;;;;;;;13.15;5.72;;;;;;;;;;5018324;28;20046;-58
2021/06/17 00:52:28;;;;;;;6.68;4.85;;;;;;;;;;5018357;28;20042;-58
2021/06/17 00:54:58;;;;;;;11.95;4.90;;;;;;;;;;5015934;28;20092;-58
2021/06/17 00:57:25;;;;;;;10.93;5.10;;;;;;;;;;5018969;28;20057;-58
2021/06/17 00:59:52;;;;;;;8.48;4.75;;;;;;;;;;5019618;28;20042;-58
2021/06/17 01:02:19;;;;;;;12.57;5.27;;;;;;;;;;5022002;28;20053;-57
2021/06/17 01:04:45;;;;;;;9.40;5.07;;;;;;;;;;5018674;28;20405;-58
2021/06/17 01:07:20;;;;;;;9.10;4.82;;;;;;;;;;5015294;28;20042;-58
2021/06/17 01:10:03;;;;;;;17.05;5.70;;;;;;;;;;5016867;28;20559;-58
2021/06/17 01:12:41;;;;;;;9.75;4.97;;;;;;;;;;5019473;28;20057;-58
2021/06/17 01:15:10;;;;;;;11.98;5.00;;;;;;;;;;5034452;28;20053;-58
2021/06/17 01:17:39;;;;;;;9.25;4.93;;;;;;;;;;5017944;28;20043;-58
2021/06/17 01:20:18;;;;;;;9.63;4.82;;;;;;;;;;5015339;28;20045;-58
2021/06/17 01:23:00;;;;;;;11.95;5.32;;;;;;;;;;5019288;28;20045;-58
2021/06/17 01:25:46;;;;;;;7.45;4.43;;;;;;;;;;5018037;28;20137;-57
2021/06/17 01:28:16;;;;;;;11.23;4.70;;;;;;;;;;5017817;28;20053;-58
2021/06/17 01:30:49;;;;;;;14.77;5.40;;;;;;;;;;5019233;28;20038;-58
2021/06/17 01:33:23;;;;;;;12.25;5.65;;;;;;;;;;5016559;28;20508;-58
2021/06/17 01:35:50;;;;;;;9.60;5.25;;;;;;;;;;5018947;28;20052;-58
2021/06/17 01:38:20;;;;;;;7.38;4.93;;;;;;;;;;5018158;28;20088;-57
2021/06/17 01:40:48;;;;;;;14.13;5.68;;;;;;;;;;5015344;28;20054;-58
2021/06/17 01:43:17;;;;;;;11.25;5.13;;;;;;;;;;5022100;28;20042;-57
2021/06/17 01:45:47;;;;;;;17.08;6.10;;;;;;;;;;5017132;28;20041;-58
2021/06/17 01:48:15;;;;;;;11.02;5.35;;;;;;;;;;5020728;28;20076;-58
2021/06/17 01:50:43;;;;;;;7.72;5.13;;;;;;;;;;5013200;28;20497;-57
2021/06/17 01:53:11;;;;;;;8.00;4.93;;;;;;;;;;5023122;28;20404;-57
2021/06/17 01:55:39;;;;;;;10.40;5.43;;;;;;;;;;5025373;28;20044;-57
2021/06/17 01:58:11;;;;;;;13.00;5.80;;;;;;;;;;5020533;28;20096;-58
2021/06/17 02:00:39;;;;;;;16.38;6.22;;;;;;;;;;5021964;28;20050;-58
2021/06/17 02:03:07;;;;;;;10.95;5.88;;;;;;;;;;5018721;28;20041;-58
2021/06/17 02:05:34;;;;;;;16.38;5.80;;;;;;;;;;5023649;28;20034;-57
2021/06/17 02:08:03;;;;;;;13.65;6.00;;;;;;;;;;5019541;28;20046;-57
2021/06/17 02:10:31;;;;;;;13.48;6.78;;;;;;;;;;5016856;28;20457;-57
2021/06/17 02:12:58;;;;;;;16.10;6.63;;;;;;;;;;5020975;28;20037;-57
2021/06/17 02:15:29;;;;;;;14.27;5.70;;;;;;;;;;5017259;28;20054;-58
2021/06/17 02:17:58;;;;;;;13.30;6.00;;;;;;;;;;5025005;28;20445;-57
2021/06/17 02:20:25;;;;;;;12.85;6.32;;;;;;;;;;5020472;28;20038;-57
2021/06/17 02:22:52;;;;;;;;;;;;;;;;;;5024423;28;20037;-57
2021/06/17 02:25:21;;;;;;;14.02;6.72;;;;;;;;;;5019650;28;19928;-58
2021/06/17 02:27:51;;;;;;;12.25;5.15;;;;;;;;;;5019714;28;20076;-57
2021/06/17 02:30:22;;;;;;;10.88;5.78;;;;;;;;;;5023556;28;20506;-58
2021/06/17 02:32:50;;;;;;;10.80;5.85;;;;;;;;;;5021312;28;20060;-58
2021/06/17 02:35:19;;;;;;;14.07;5.32;;;;;;;;;;5026930;28;20041;-58
2021/06/17 02:37:48;;;;;;;12.32;6.13;;;;;;;;;;5019836;28;20045;-58
2021/06/17 02:40:16;;;;;;;11.52;6.43;;;;;;;;;;5021020;28;20116;-58
2021/06/17 02:43:01;;;;;;;8.70;5.18;;;;;;;;;;5022110;28;20046;-57
2021/06/17 02:45:29;;;;;;;10.77;6.25;;;;;;;;;;5018881;28;20057;-58
2021/06/17 02:47:56;;;;;;;9.80;5.30;;;;;;;;;;5017674;28;20104;-58
2021/06/17 02:50:23;;;;;;;6.50;5.00;;;;;;;;;;5018438;28;20519;-57
2021/06/17 02:52:51;;;;;;;7.93;4.65;;;;;;;;;;5017828;28;21031;-58
2021/06/17 02:55:17;;;;;;;10.55;5.30;;;;;;;;;;5017427;28;20050;-57
2021/06/17 02:57:45;;;;;;;;;;;;;;;;;;5022608;28;20111;-58
2021/06/17 03:00:12;;;;;;;14.48;5.72;;;;;;;;;;5023128;28;19921;-58
2021/06/17 03:02:51;;;;;;;9.88;5.32;;;;;;;;;;5018228;28;20425;-58
2021/06/17 03:26:35;;;;;;;9.02;3.40;;;;;;;;;;5135677;27;20394;-59
2021/06/17 03:29:02;;;;;;;10.75;3.95;;;;;;;;;;5121360;27;20118;-59
2021/06/17 03:31:30;;;;;;;6.30;3.70;;;;;;;;;;5125277;27;20043;-59
2021/06/17 03:33:58;;;;;;;5.53;3.55;;;;;;;;;;5120371;27;20051;-59
2021/06/17 03:36:25;;;;;;;8.98;4.50;;;;;;;;;;5123880;27;20473;-59
2021/06/17 03:38:56;;;;;;;7.32;3.60;;;;;;;;;;5121684;27;20063;-59
2021/06/17 03:41:23;;;;;;;7.25;3.80;;;;;;;;;;5118518;27;20047;-59
2021/06/17 03:43:51;;;;;;;6.10;3.70;;;;;;;;;;5122307;27;20105;-59
2021/06/17 03:46:19;;;;;;;6.85;3.70;;;;;;;;;;5121174;27;20123;-59
2021/06/17 03:48:47;;;;;;;9.05;4.72;;;;;;;;;;5119741;27;20526;-59
2021/06/17 03:51:14;;;;;;;6.90;3.83;;;;;;;;;;5118812;28;20039;-59
2021/06/17 03:53:48;;;;;;;6.32;3.63;;;;;;;;;;5119712;27;20126;-60
2021/06/17 03:56:15;;;;;;;4.70;3.10;;;;;;;;;;5124547;27;20042;-59
2021/06/17 03:58:43;;;;;;;5.50;3.00;;;;;;;;;;5124873;27;20039;-59
2021/06/17 04:01:11;;;;;;;5.22;3.10;;;;;;;;;;5101491;28;20046;-59
2021/06/17 04:03:38;;;;;;;6.25;2.90;;;;;;;;;;5100224;28;20089;-59
2021/06/17 04:06:05;;;;;;;5.95;2.75;;;;;;;;;;5099289;28;20047;-59
2021/06/17 04:08:35;;;;;;;5.78;2.63;;;;;;;;;;5097790;28;20093;-59
2021/06/17 04:11:03;;;;;;;4.07;2.28;;;;;;;;;;5100384;28;20067;-59
2021/06/17 04:13:34;;;;;;;8.10;2.40;;;;;;;;;;5102111;28;20067;-60
2021/06/17 04:16:01;;;;;;;4.57;2.47;;;;;;;;;;5102309;28;20093;-57
2021/06/17 04:18:29;;;;;;;5.80;2.60;;;;;;;;;;5097471;28;20067;-58
2021/06/17 04:20:57;;;;;;;4.18;2.25;;;;;;;;;;5097910;28;20135;-58
2021/06/17 04:23:24;;;;;;;5.70;2.50;;;;;;;;;;5099476;28;20523;-58
2021/06/17 04:25:52;;;;;;;6.15;2.30;;;;;;;;;;5096830;28;20052;-58
2021/06/17 04:28:19;;;;;;;5.82;2.00;;;;;;;;;;5100832;28;20090;-58
2021/06/17 04:30:46;;;;;;;7.38;2.50;;;;;;;;;;5104852;28;20052;-58
2021/06/17 04:33:16;;;;;;;6.75;2.47;;;;;;;;;;5096650;28;20036;-58
2021/06/17 04:35:44;;;;;;;7.60;2.45;;;;;;;;;;5099969;28;20048;-58
2021/06/17 04:38:12;;;;;;;8.40;2.40;;;;;;;;;;5085150;28;20557;-57
2021/06/17 04:40:39;;;;;;;5.75;2.30;;;;;;;;;;5085764;28;20122;-59
2021/06/17 04:43:08;;;;;;;5.80;2.70;;;;;;;;;;5078169;28;20552;-60
2021/06/17 04:45:35;;;;;;;6.88;2.58;;;;;;;;;;5083513;28;20037;-59
2021/06/17 04:48:08;;;;;;;8.32;2.67;;;;;;;;;;5080952;28;20056;-59
2021/06/17 04:50:36;;;;;;;7.15;2.42;;;;;;;;;;5080352;28;20037;-59
2021/06/17 04:53:04;;;;;;;6.90;2.92;;;;;;;;;;5085821;28;20416;-56
2021/06/17 04:55:32;;;;;;;5.90;2.70;;;;;;;;;;5084230;28;20044;-57
2021/06/17 04:57:59;;;;;;;3.75;2.63;;;;;;;;;;5077852;28;20043;-57
2021/06/17 05:00:29;;;;;;;6.00;2.95;;;;;;;;;;5084040;28;20048;-57
2021/06/17 05:02:56;;;;;;;9.52;3.00;;;;;;;;;;5086084;28;20044;-57
2021/06/17 05:05:24;;;;;;;7.82;3.25;;;;;;;;;;5085930;28;20067;-57
2021/06/17 05:13:04;;;;;;;9.00;3.00;;;;;;;;;;5081767;28;20090;-57
2021/06/17 05:15:31;;;;;;;9.30;2.75;;;;;;;;;;5080698;28;20040;-56
2021/06/17 05:17:58;;;;;;;6.88;2.70;;;;;;;;;;5078790;28;20040;-57
2021/06/17 05:20:26;;;;;;;11.00;2.38;;;;;;;;;;5085880;28;20040;-59
2021/06/17 05:22:53;;;;;;;9.45;2.75;;;;;;;;;;5084471;28;20052;-59
2021/06/17 05:25:20;;;;;;;12.07;2.83;;;;;;;;;;5082299;28;20523;-59
2021/06/17 05:27:54;;;;;;;10.05;2.85;;;;;;;;;;5092862;28;20352;-59
2021/06/17 05:30:21;;;;;;;9.20;2.40;;;;;;;;;;5086998;28;20048;-59
2021/06/17 05:32:48;;;;;;;8.73;2.40;;;;;;;;;;5086745;28;20299;-59
2021/06/17 05:35:16;;;;;;;6.33;2.40;;;;;;;;;;5086567;28;20040;-59
2021/06/17 05:37:45;;;;;;;9.38;2.58;;;;;;;;;;5085291;28;20289;-59
2021/06/17 05:40:11;;;;;;;6.10;2.83;;;;;;;;;;5081706;28;20491;-59
2021/06/17 05:42:38;;;;;;;7.55;2.70;;;;;;;;;;5084864;28;20040;-60
2021/06/17 05:45:06;;;;;;;5.93;2.55;;;;;;;;;;5077870;28;20515;-59
2021/06/17 05:47:32;;;;;;;5.07;2.28;;;;;;;;;;5063294;28;20100;-59
2021/06/17 05:49:59;;;;;;;9.30;2.30;;;;;;;;;;5087060;28;20053;-60
2021/06/17 05:52:28;;;;;;;5.72;2.15;;;;;;;;;;5088385;28;20040;-60
2021/06/17 05:54:54;;;;;;;3.80;2.10;;;;;;;;;;5081266;28;20059;-59
2021/06/17 05:57:21;;;;;;;5.03;2.00;;;;;;;;;;5085171;28;20491;-60
2021/06/17 05:59:49;;;;;;;7.28;2.05;;;;;;;;;;5082281;28;20036;-60
2021/06/17 06:02:16;;;;;;;4.20;1.92;;;;;;;;;;5079695;28;20097;-60
2021/06/17 06:04:43;;;;;;;5.90;2.00;;;;;;;;;;5078391;28;20059;-60
2021/06/17 06:07:10;;;;;;;6.72;2.33;;;;;;;;;;5071739;28;20290;-60
2021/06/17 06:09:37;;;;;;;6.97;2.25;;;;;;;;;;5081848;28;20063;-60
2021/06/17 06:12:06;;;;;;;4.95;2.08;;;;;;;;;;5085604;28;20565;-60
2021/06/17 06:14:33;;;;;;;6.18;2.05;;;;;;;;;;5083910;28;20044;-60
2021/06/17 06:17:01;;;;;;;6.88;2.08;;;;;;;;;;5089215;28;20032;-59
2021/06/17 06:19:30;;;;;;;5.97;2.13;;;;;;;;;;5086111;28;20044;-60
2021/06/17 06:21:57;;;;;;;5.55;2.10;;;;;;;;;;5084899;28;20056;-60
2021/06/17 06:24:24;;;;;;;6.65;2.50;;;;;;;;;;5081979;28;20040;-60
2021/06/17 06:26:52;;;;;;;5.87;2.00;;;;;;;;;;5080173;28;20496;-60
2021/06/17 06:29:19;;;;;;;3.90;1.90;;;;;;;;;;5080179;28;20727;-60
2021/06/17 06:31:46;;;;;;;5.93;1.97;;;;;;;;;;5080127;28;20044;-60
2021/06/17 06:34:13;;;;;;;8.27;1.95;;;;;;;;;;5081658;28;20044;-60
2021/06/17 06:36:40;;;;;;;4.93;2.10;;;;;;;;;;5083742;28;20036;-60
2021/06/17 06:39:07;;;;;;;6.15;2.10;;;;;;;;;;5083525;28;20059;-60
2021/06/17 06:41:37;;;;;;;5.68;2.00;;;;;;;;;;5080910;28;20040;-60
2021/06/17 06:44:04;;;;;;;4.07;1.70;;;;;;;;;;5080519;28;20036;-60
2021/06/17 06:46:33;;;;;;;6.93;1.50;;;;;;;;;;5080875;28;20052;-60
2021/06/17 06:49:00;;;;;;;3.17;1.67;;;;;;;;;;5083298;28;20039;-60
2021/06/17 06:51:35;;;;;;;5.10;1.67;;;;;;;;;;5081720;28;20044;-60
2021/06/17 06:54:02;;;;;;;6.85;2.15;;;;;;;;;;5079136;28;20071;-60
2021/06/17 06:56:29;;;;;;;4.70;1.98;;;;;;;;;;5082552;28;20036;-60
2021/06/17 06:59:02;;;;;;;5.70;2.03;;;;;;;;;;5066815;28;20162;-60
2021/06/17 07:01:29;;;;;;;5.03;1.80;;;;;;;;;;5073380;28;20133;-60
2021/06/17 07:03:56;;;;;;;6.63;1.92;;;;;;;;;;5077849;28;20438;-60
2021/06/17 07:06:23;;;;;;;10.18;2.20;;;;;;;;;;5083021;28;20165;-60
2021/06/17 07:08:50;;;;;;;2.78;1.95;;;;;;;;;;5078611;28;20036;-60
2021/06/17 07:11:17;;;;;;;6.85;1.92;;;;;;;;;;5078944;28;20040;-60
2021/06/17 07:13:43;;;;;;;6.15;1.90;;;;;;;;;;5080962;28;20554;-61
2021/06/17 07:16:12;;;;;;;6.82;1.98;;;;;;;;;;5082656;28;20044;-61
2021/06/17 07:18:40;;;;;;;5.18;1.80;;;;;;;;;;5071347;28;20049;-60
2021/06/17 07:21:08;;;;;;;2.67;1.48;;;;;;;;;;5079778;28;20082;-60
2021/06/17 07:23:36;;;;;;;3.70;1.58;;;;;;;;;;5078530;28;20040;-60
2021/06/17 07:26:04;;;;;;;8.38;1.85;;;;;;;;;;5075116;28;20095;-60
2021/06/17 07:28:31;;;;;;;5.05;1.83;;;;;;;;;;5068448;28;20036;-60
2021/06/17 07:30:58;;;;;;;6.68;1.90;;;;;;;;;;5065441;28;20040;-60
2021/06/17 07:33:28;;;;;;;9.48;2.00;;;;;;;;;;5062633;28;20036;-61
2021/06/17 07:35:54;;;;;;;6.68;2.05;;;;;;;;;;5059362;28;20718;-60
2021/06/17 07:38:21;;;;;;;8.52;2.00;;;;;;;;;;5061695;28;20032;-60
2021/06/17 07:40:49;;;;;;;4.90;1.75;;;;;;;;;;5062012;28;20048;-60
2021/06/17 07:43:16;;;;;;;11.37;1.93;;;;;;;;;;5063882;28;20407;-60
2021/06/17 07:45:43;;;;;;;4.10;1.90;;;;;;;;;;5061785;28;20044;-60
2021/06/17 07:48:12;;;;;;;7.47;2.15;;;;;;;;;;5060716;28;20055;-60
2021/06/17 07:50:39;;;;;;;4.95;1.70;;;;;;;;;;5061399;28;20048;-60
2021/06/17 07:53:07;;;;;;;4.72;1.80;;;;;;;;;;5058836;28;20041;-60
2021/06/17 07:55:34;;;;;;;5.80;1.98;;;;;;;;;;5054903;28;20099;-60
2021/06/17 07:58:07;;;;;;;5.50;1.73;;;;;;;;;;5060958;28;20491;-61
2021/06/17 08:00:34;;;;;;;6.65;2.13;;;;;;;;;;5060617;28;20045;-60
2021/06/17 08:03:01;;;;;;;5.27;1.70;;;;;;;;;;5058013;28;20040;-61
2021/06/17 08:05:28;;;;;;;10.35;2.05;;;;;;;;;;5056041;28;20583;-61
2021/06/17 08:07:58;;;;;;;4.63;2.05;;;;;;;;;;5063253;28;20045;-61
2021/06/17 08:10:25;;;;;;;5.77;2.10;;;;;;;;;;5068431;28;20495;-61
2021/06/17 08:12:53;;;;;;;4.30;1.90;;;;;;;;;;5064486;28;20048;-61
2021/06/17 08:15:22;;;;;;;4.60;1.77;;;;;;;;;;5064468;28;20041;-60
2021/06/17 08:17:49;;;;;;;7.47;1.80;;;;;;;;;;5063667;28;20515;-61
2021/06/17 08:20:16;;;;;;;8.82;2.05;;;;;;;;;;5063130;28;20064;-60
2021/06/17 08:22:44;;;;;;;6.63;2.03;;;;;;;;;;5064006;28;20354;-61
2021/06/17 08:25:12;;;;;;;4.97;1.70;;;;;;;;;;5070421;28;20044;-61
2021/06/17 08:27:41;;;;;;;4.80;1.67;;;;;;;;;;5083655;28;20289;-60
2021/06/17 08:30:11;;;;;;;4.00;1.80;;;;;;;;;;5084575;28;20044;-61
2021/06/17 08:32:38;;;;;;;6.68;1.70;;;;;;;;;;5081037;28;20128;-60
2021/06/17 08:35:05;;;;;;;3.92;1.83;;;;;;;;;;5084900;28;20044;-61
2021/06/17 08:37:34;;;;;;;4.93;1.73;;;;;;;;;;5082870;28;20048;-61
2021/06/17 08:40:00;;;;;;;4.95;1.90;;;;;;;;;;5081137;28;20083;-60
2021/06/17 08:42:28;;;;;;;6.70;1.70;;;;;;;;;;5079998;28;20109;-61
2021/06/17 08:44:56;;;;;;;7.20;1.88;;;;;;;;;;5088425;28;20115;-61
2021/06/17 08:47:30;;;;;;;6.65;1.83;;;;;;;;;;5079417;28;20499;-61
2021/06/17 08:49:59;;;;;;;5.28;2.00;;;;;;;;;;5086469;28;20483;-61
2021/06/17 08:52:31;;;;;;;4.28;1.98;;;;;;;;;;5081924;28;20052;-61
2021/06/17 08:55:28;;;;;;;7.00;1.80;;;;;;;;;;5085198;28;20448;-60
2021/06/17 08:57:56;;;;;;;4.40;2.03;;;;;;;;;;5066477;28;20040;-61
2021/06/17 09:00:27;;;;;;;5.07;1.70;;;;;;;;;;5081896;28;20510;-61
2021/06/17 09:02:56;;;;;;;4.43;1.52;;;;;;;;;;5079454;28;20094;-61
2021/06/17 09:05:24;;;;;;;6.38;1.58;;;;;;;;;;5081058;28;20045;-61
2021/06/17 09:07:53;;;;;;;7.25;1.60;;;;;;;;;;5070163;28;20398;-58
2021/06/17 09:10:20;;;;;;;3.40;1.48;;;;;;;;;;5084861;28;20110;-59
2021/06/17 09:12:48;;;;;;;3.47;1.20;;;;;;;;;;5086702;28;20102;-59
2021/06/17 09:15:26;;;;;;;5.30;1.48;;;;;;;;;;5083798;28;20036;-59
2021/06/17 09:18:08;;;;;;;5.10;1.52;;;;;;;;;;5078071;28;20080;-59
2021/06/17 09:20:35;;;;;;;4.82;1.35;;;;;;;;;;5083915;28;20088;-58
2021/06/17 09:23:22;;;;;;;33.17;2.28;;;;;;;;;;5085535;28;20058;-58
2021/06/17 09:26:11;;;;;;;4.22;1.70;;;;;;;;;;5081742;28;20075;-58
2021/06/17 09:29:04;;;;;;;5.13;1.95;;;;;;;;;;5086125;28;20495;-59
2021/06/17 09:31:36;;;;;;;8.18;1.92;;;;;;;;;;5083543;28;20119;-59
2021/06/17 09:34:06;;;;;;;5.47;1.83;;;;;;;;;;5083697;28;20063;-58
2021/06/17 09:36:34;;;;;;;6.20;1.73;;;;;;;;;;5081644;28;20047;-59
2021/06/17 09:39:10;;;;;;;5.07;1.60;;;;;;;;;;5087827;28;20037;-59
2021/06/17 09:41:43;;;;;;;4.20;1.37;;;;;;;;;;5091393;28;20577;-59
2021/06/17 09:44:30;;;;;;;3.95;1.75;;;;;;;;;;5091256;28;20619;-59
2021/06/17 09:47:17;;;;;;;4.57;1.75;;;;;;;;;;5078319;28;20133;-59
2021/06/17 09:49:45;;;;;;;3.03;1.70;;;;;;;;;;5092285;28;20079;-59
2021/06/17 09:52:13;;;;;;;4.18;1.73;;;;;;;;;;5077259;28;20032;-59
2021/06/17 09:54:42;;;;;;;3.78;1.75;;;;;;;;;;5083272;28;20086;-59
2021/06/17 09:57:10;;;;;;;4.85;1.85;;;;;;;;;;5089642;28;20056;-59
2021/06/17 09:59:42;;;;;;;7.70;1.80;;;;;;;;;;5079859;28;20066;-59
2021/06/17 10:02:17;;;;;;;10.65;2.28;;;;;;;;;;5085380;28;20050;-59
2021/06/17 10:04:47;;;;;;;11.15;1.98;;;;;;;;;;5089920;28;20048;-58
2021/06/17 10:07:16;;;;;;;5.28;2.05;;;;;;;;;;5062685;28;20052;-59
2021/06/17 10:09:44;;;;;;;4.47;2.00;;;;;;;;;;5088600;28;20472;-59
2021/06/17 10:12:12;;;;;;;4.30;2.03;;;;;;;;;;5083935;28;20043;-59
2021/06/17 10:14:39;;;;;;;2.95;1.80;;;;;;;;;;5081557;28;20040;-59
2021/06/17 10:17:07;;;;;;;4.07;1.88;;;;;;;;;;5080510;28;20120;-59
2021/06/17 10:19:35;;;;;;;3.03;1.45;;;;;;;;;;5085045;28;20127;-59
2021/06/17 10:22:02;;;;;;;4.15;1.70;;;;;;;;;;5081248;28;20074;-59
2021/06/17 10:24:29;;;;;;;6.57;2.17;;;;;;;;;;5084298;28;20044;-59
2021/06/17 10:26:55;;;;;;;;;;;;;;;;;;5082326;28;20114;-59
2021/06/17 10:29:28;;;;;;;5.70;2.03;;;;;;;;;;5087601;28;19927;-59
2021/06/17 10:31:56;;;;;;;8.70;1.80;;;;;;;;;;5078460;28;20068;-59
2021/06/17 10:34:28;;;;;;;3.00;1.77;;;;;;;;;;5083595;28;20052;-59
2021/06/17 10:37:05;;;;;;;4.03;1.83;;;;;;;;;;5080975;28;20052;-59
2021/06/17 10:39:53;;;;;;;4.10;2.05;;;;;;;;;;5084129;28;20052;-58
2021/06/17 10:42:29;;;;;;;11.20;2.00;;;;;;;;;;5083140;28;20051;-59
2021/06/17 10:45:05;;;;;;;6.13;2.00;;;;;;;;;;5081599;28;20036;-59
2021/06/17 10:47:42;;;;;;;4.38;1.70;;;;;;;;;;5084544;28;20043;-59
2021/06/17 10:50:21;;;;;;;6.72;2.10;;;;;;;;;;5084741;28;20040;-59
2021/06/17 10:52:51;;;;;;;6.10;2.10;;;;;;;;;;5084306;28;20127;-59
2021/06/17 10:55:24;;;;;;;8.50;2.20;;;;;;;;;;5084607;28;20076;-59
2021/06/17 10:57:52;;;;;;;5.70;2.10;;;;;;;;;;5083787;28;20089;-59
2021/06/17 11:00:30;;;;;;;6.82;2.08;;;;;;;;;;5082123;28;20051;-59
2021/06/17 11:03:03;;;;;;;4.28;2.38;;;;;;;;;;5083210;28;20515;-59
2021/06/17 11:05:36;;;;;;;4.47;2.13;;;;;;;;;;5082333;28;20101;-59
2021/06/17 11:08:15;;;;;;;7.88;2.30;;;;;;;;;;5085005;28;20491;-59
2021/06/17 11:10:45;;;;;;;7.03;1.92;;;;;;;;;;5066481;28;20051;-59
2021/06/17 11:13:28;;;;;;;5.47;2.22;;;;;;;;;;5082134;28;20055;-59
2021/06/17 11:16:07;;;;;;;4.93;1.90;;;;;;;;;;5083369;28;20044;-59
2021/06/17 11:21:35;;;;;;;3.03;1.88;;;;;;;;;;5086099;28;20072;-59
2021/06/17 11:24:09;;;;;;;7.65;1.92;;;;;;;;;;5086924;28;20040;-59
2021/06/17 11:26:41;;;;;;;4.22;2.50;;;;;;;;;;5085996;28;20145;-59
2021/06/17 11:29:34;;;;;;;9.95;2.58;;;;;;;;;;5079857;28;20044;-59
2021/06/17 11:32:03;;;;;;;3.30;2.03;;;;;;;;;;5085132;28;20663;-59
2021/06/17 11:34:30;;;;;;;3.00;2.28;;;;;;;;;;5081167;28;20487;-59
2021/06/17 11:36:58;;;;;;;3.90;2.47;;;;;;;;;;5083901;28;20488;-59
2021/06/17 11:39:29;;;;;;;6.45;2.58;;;;;;;;;;5078518;28;20044;-59
2021/06/17 11:41:59;;;;;;;6.35;2.30;;;;;;;;;;5085735;28;20050;-59
2021/06/17 11:44:27;;;;;;;3.63;2.40;;;;;;;;;;5079689;28;20082;-59
2021/06/17 11:47:09;;;;;;;5.55;2.60;;;;;;;;;;5079416;28;20443;-59
2021/06/17 11:49:38;;;;;;;4.78;2.13;;;;;;;;;;5087163;28;20121;-59
2021/06/17 11:52:09;;;;;;;8.98;3.03;;;;;;;;;;5078867;28;20037;-59
2021/06/17 11:54:37;;;;;;;5.25;2.30;;;;;;;;;;5084956;28;20044;-59
2021/06/17 11:57:09;;;;;;;4.63;2.60;;;;;;;;;;5086920;28;20097;-58
2021/06/17 11:59:37;;;;;;;6.55;2.47;;;;;;;;;;5088120;28;20387;-59
2021/06/17 12:02:09;;;;;;;8.65;3.00;;;;;;;;;;5089662;28;20072;-59
2021/06/17 12:04:43;;;;;;;5.55;2.50;;;;;;;;;;5087001;28;20047;-59
2021/06/17 12:07:11;;;;;;;7.55;2.80;;;;;;;;;;5087757;28;20043;-59
2021/06/17 12:09:38;;;;;;;;;;;;;;;;;;5091288;28;20549;-59
2021/06/17 12:12:12;;;;;;;3.50;2.47;;;;;;;;;;5083178;28;20315;-58
2021/06/17 12:14:41;;;;;;;8.15;2.60;;;;;;;;;;5087331;28;20410;-59
2021/06/17 12:17:08;;;;;;;;;;;;;;;;;;5086424;28;20041;-59
2021/06/17 12:19:39;;;;;;;11.05;3.28;;;;;;;;;;5088870;28;19927;-59
2021/06/17 12:22:06;;;;;;;4.55;3.05;;;;;;;;;;5088021;28;20075;-59
2021/06/17 12:24:34;;;;;;;7.85;3.05;;;;;;;;;;5085099;28;20052;-59
2021/06/17 12:27:00;;;;;;;8.43;3.17;;;;;;;;;;5084317;28;20119;-59
2021/06/17 12:29:31;;;;;;;7.82;3.05;;;;;;;;;;5087398;28;20445;-59
2021/06/17 12:31:57;;;;;;;3.63;2.65;;;;;;;;;;5081446;28;20032;-59
2021/06/17 12:34:29;;;;;;;7.32;2.90;;;;;;;;;;5083304;28;20048;-59
2021/06/17 12:37:02;;;;;;;5.50;3.10;;;;;;;;;;5082611;28;20102;-59
2021/06/17 12:39:28;;;;;;;10.18;3.78;;;;;;;;;;5081434;28;20065;-59
2021/06/17 12:41:58;;;;;;;6.80;3.05;;;;;;;;;;5086822;28;20039;-59
2021/06/17 12:44:31;;;;;;;8.07;3.05;;;;;;;;;;5087220;28;20429;-59
2021/06/17 12:47:00;;;;;;;5.63;3.05;;;;;;;;;;5089730;28;20044;-59
2021/06/17 12:52:09;;;;;;;5.15;2.88;;;;;;;;;;5090440;28;20040;-59
2021/06/17 12:54:42;;;;;;;4.43;2.95;;;;;;;;;;5085956;28;20044;-59
2021/06/17 12:57:11;;;;;;;6.70;3.50;;;;;;;;;;5085858;28;20143;-59
2021/06/17 12:59:43;;;;;;;10.35;3.38;;;;;;;;;;5086260;28;20051;-59
2021/06/17 13:02:14;;;;;;;5.82;3.33;;;;;;;;;;5070646;28;20044;-59
2021/06/17 13:04:42;;;;;;;7.85;3.17;;;;;;;;;;5088222;28;20052;-59
2021/06/17 13:07:17;;;;;;;7.25;3.38;;;;;;;;;;5086664;28;20656;-59
2021/06/17 13:09:44;;;;;;;5.90;3.08;;;;;;;;;;5085683;28;20057;-59
2021/06/17 13:12:16;;;;;;;7.35;2.95;;;;;;;;;;5085419;28;20493;-59
2021/06/17 13:15:02;;;;;;;7.95;3.60;;;;;;;;;;5086657;28;20044;-59
2021/06/17 13:17:30;;;;;;;9.75;3.60;;;;;;;;;;5084339;28;20044;-59
2021/06/17 13:19:58;;;;;;;4.63;3.28;;;;;;;;;;5089314;28;20203;-59
2021/06/17 13:22:28;;;;;;;6.85;3.50;;;;;;;;;;5087024;28;20040;-59
2021/06/17 13:25:02;;;;;;;6.55;3.50;;;;;;;;;;5085149;28;20064;-59
2021/06/17 13:27:29;;;;;;;7.57;3.63;;;;;;;;;;5090211;28;20044;-59
2021/06/17 13:30:02;;;;;;;5.90;3.38;;;;;;;;;;5065521;28;20040;-59
2021/06/17 13:32:29;;;;;;;6.38;3.53;;;;;;;;;;5080949;28;20567;-59
2021/06/17 13:34:56;;;;;;;4.72;3.22;;;;;;;;;;5085197;28;20062;-59
2021/06/17 13:37:24;;;;;;;10.10;3.97;;;;;;;;;;5086492;28;20047;-59
2021/06/17 13:39:51;;;;;;;7.40;4.22;;;;;;;;;;5081503;28;20060;-59
2021/06/17 13:42:20;;;;;;;6.20;3.88;;;;;;;;;;5090748;28;20040;-59
2021/06/17 13:44:49;;;;;;;5.80;3.63;;;;;;;;;;5079968;28;20044;-59
2021/06/17 13:47:16;;;;;;;4.90;3.90;;;;;;;;;;5081982;28;20085;-59
2021/06/17 13:49:44;;;;;;;5.18;3.80;;;;;;;;;;5085089;28;20130;-59
2021/06/17 13:52:12;;;;;;;7.28;3.95;;;;;;;;;;5087394;28;20091;-59
2021/06/17 13:54:44;;;;;;;23.98;4.45;;;;;;;;;;5090252;28;20085;-59
2021/06/17 13:57:13;;;;;;;5.88;4.05;;;;;;;;;;5079255;28;20114;-59
2021/06/17 13:59:41;;;;;;;6.53;4.45;;;;;;;;;;5066670;28;20048;-59
2021/06/17 14:02:08;;;;;;;7.20;4.38;;;;;;;;;;5083868;28;20083;-59
2021/06/17 14:04:36;;;;;;;6.15;3.58;;;;;;;;;;5086898;28;20064;-59
2021/06/17 14:07:02;;;;;;;6.47;4.00;;;;;;;;;;5080799;28;20083;-59
2021/06/17 14:09:30;;;;;;;5.88;3.90;;;;;;;;;;5082274;28;20052;-59
2021/06/17 14:11:57;;;;;;;10.75;4.63;;;;;;;;;;5081122;28;20059;-59
2021/06/17 14:14:24;;;;;;;6.93;4.25;;;;;;;;;;5081401;28;20055;-59
2021/06/17 14:16:50;;;;;;;6.53;3.97;;;;;;;;;;5089764;28;20040;-59
2021/06/17 14:19:19;;;;;;;11.18;4.60;;;;;;;;;;5078332;28;20041;-59
2021/06/17 14:21:45;;;;;;;8.55;4.10;;;;;;;;;;5082960;28;20044;-59
2021/06/17 14:24:16;;;;;;;8.85;4.50;;;;;;;;;;5084928;28;20257;-61
2021/06/17 14:26:55;;;;;;;4.45;3.92;;;;;;;;;;5083794;28;20487;-59
2021/06/17 14:29:21;;;;;;;9.40;4.20;;;;;;;;;;5088441;28;20051;-59
2021/06/17 14:31:49;;;;;;;9.65;4.07;;;;;;;;;;5085637;28;20032;-59
2021/06/17 14:34:16;;;;;;;4.78;3.88;;;;;;;;;;5084116;28;20047;-59
2021/06/17 14:36:44;;;;;;;6.30;4.65;;;;;;;;;;5071606;28;20080;-59
2021/06/17 14:39:11;;;;;;;9.35;4.97;;;;;;;;;;5084438;28;20487;-59
2021/06/17 14:41:38;;;;;;;6.15;4.18;;;;;;;;;;5089791;28;20036;-59
2021/06/17 14:44:05;;;;;;;7.38;4.20;;;;;;;;;;5082100;28;20052;-59
2021/06/17 14:46:32;;;;;;;4.60;4.07;;;;;;;;;;5081826;28;20046;-59
2021/06/17 14:48:59;;;;;;;7.05;4.63;;;;;;;;;;5082203;28;20110;-59
2021/06/17 14:51:26;;;;;;;10.45;4.45;;;;;;;;;;5086091;28;20044;-59
2021/06/17 14:53:54;;;;;;;8.85;4.38;;;;;;;;;;5081075;28;20043;-59
2021/06/17 14:56:20;;;;;;;15.57;4.65;;;;;;;;;;5083988;28;20479;-59
2021/06/17 14:59:08;;;;;;;7.65;4.53;;;;;;;;;;5081835;28;20107;-59
2021/06/17 15:01:35;;;;;;;6.88;3.85;;;;;;;;;;5082833;28;20037;-59
2021/06/17 15:04:02;;;;;;;8.50;4.47;;;;;;;;;;5086099;28;20482;-59
2021/06/17 15:06:28;;;;;;;10.27;4.50;;;;;;;;;;5078224;28;20492;-59
2021/06/17 15:08:56;;;;;;;8.57;4.40;;;;;;;;;;5084689;28;20056;-59
2021/06/17 15:11:22;;;;;;;6.85;4.10;;;;;;;;;;5084106;28;20073;-59
2021/06/17 15:13:49;;;;;;;8.18;4.60;;;;;;;;;;5078707;28;20067;-59
2021/06/17 15:16:16;;;;;;;5.32;4.03;;;;;;;;;;5077048;28;20613;-59
2021/06/17 15:18:43;;;;;;;10.23;4.30;;;;;;;;;;5083379;28;20048;-59
2021/06/17 15:21:09;;;;;;;9.10;4.22;;;;;;;;;;5088858;28;20046;-59
2021/06/17 15:23:42;;;;;;;6.35;4.40;;;;;;;;;;5086078;28;20071;-59
2021/06/17 15:26:10;;;;;;;6.88;4.57;;;;;;;;;;5075536;28;20123;-59
2021/06/17 15:28:38;;;;;;;5.20;3.70;;;;;;;;;;5083136;28;20040;-59